Time;durP1;ratioP1;P1;durP2;ratioP2;P2;SDS_P1;SDS_P2;PMS_P1;PMS_P2;Temp;Humidity;BMP_temperature;BMP_pressure;BME280_temperature;BME280_humidity;BME280_pressure;Samples;Min_cycle;Max_cycle;Signal;HPM_P1;HPM_P2
2022/10/17 00:00:20;;;;;;;52.60;30.92;;;14.40;99.90;;;;;;5093982;28;20374;-66
2022/10/17 00:02:46;;;;;;;49.97;30.48;;;14.40;99.90;;;;;;5094535;28;20077;-66
2022/10/17 00:05:11;;;;;;;50.47;30.52;;;14.40;99.90;;;;;;5094051;28;20024;-66
2022/10/17 00:07:38;;;;;;;51.33;31.13;;;14.40;99.90;;;;;;5094346;28;20491;-66
2022/10/17 00:10:05;;;;;;;52.22;30.00;;;14.40;99.90;;;;;;5093787;28;20106;-66
2022/10/17 00:12:31;;;;;;;48.92;29.45;;;14.40;99.90;;;;;;5094228;28;20457;-66
2022/10/17 00:14:57;;;;;;;47.83;31.77;;;14.40;99.90;;;;;;5094034;28;20031;-66
2022/10/17 00:17:22;;;;;;;54.95;32.50;;;14.40;99.90;;;;;;5093588;28;20061;-66
2022/10/17 00:19:48;;;;;;;47.55;30.20;;;14.40;99.90;;;;;;5094230;28;20049;-66
2022/10/17 00:22:14;;;;;;;48.28;31.13;;;14.40;99.90;;;;;;5094059;28;20071;-66
2022/10/17 00:24:40;;;;;;;51.42;30.88;;;14.30;99.90;;;;;;5093935;28;20020;-66
2022/10/17 00:27:05;;;;;;;52.72;31.10;;;14.30;99.90;;;;;;5093865;28;20162;-67
2022/10/17 00:29:31;;;;;;;53.20;32.85;;;14.30;99.90;;;;;;5094110;28;20020;-66
2022/10/17 00:31:57;;;;;;;55.67;32.05;;;14.30;99.90;;;;;;5093995;28;20074;-66
2022/10/17 00:34:23;;;;;;;50.85;31.88;;;14.30;99.90;;;;;;5093299;28;20097;-66
2022/10/17 00:36:49;;;;;;;53.45;31.83;;;14.20;99.90;;;;;;5093932;28;20531;-66
2022/10/17 00:39:15;;;;;;;50.28;31.15;;;14.10;99.90;;;;;;5093437;28;20032;-66
2022/10/17 00:41:40;;;;;;;49.40;31.13;;;14.20;99.90;;;;;;5094094;28;20021;-66
2022/10/17 00:44:29;;;;;;;54.30;33.42;;;14.10;99.90;;;;;;5093153;28;20522;-66
2022/10/17 00:46:56;;;;;;;59.00;32.47;;;14.10;99.90;;;;;;5093586;28;20032;-66
2022/10/17 00:49:24;;;;;;;51.67;33.33;;;14.10;99.90;;;;;;5093303;28;20066;-66
2022/10/17 00:51:54;;;;;;;52.58;32.72;;;14.00;99.90;;;;;;5093400;28;20028;-66
2022/10/17 00:54:24;;;;;;;53.67;32.33;;;14.00;99.90;;;;;;5093240;28;20050;-66
2022/10/17 00:56:50;;;;;;;56.47;32.08;;;14.00;99.90;;;;;;5093084;28;20048;-66
2022/10/17 00:59:18;;;;;;;53.83;32.97;;;13.90;99.90;;;;;;5093094;28;20056;-66
2022/10/17 01:02:08;;;;;;;59.50;32.78;;;14.00;99.90;;;;;;5093666;28;20016;-66
2022/10/17 01:04:40;;;;;;;52.45;32.20;;;13.90;99.90;;;;;;5092931;28;20036;-65
2022/10/17 01:07:05;;;;;;;;;;;13.90;99.90;;;;;;5093449;28;20036;-66
2022/10/17 01:09:31;;;;;;;56.65;31.92;;;13.90;99.90;;;;;;5093346;28;19911;-65
2022/10/17 01:12:05;;;;;;;53.42;31.70;;;13.90;99.90;;;;;;5093012;28;20051;-66
2022/10/17 01:14:36;;;;;;;52.42;32.17;;;13.90;99.90;;;;;;5093321;28;20020;-65
2022/10/17 01:17:23;;;;;;;54.45;31.98;;;13.80;99.90;;;;;;5093170;28;20032;-66
2022/10/17 01:20:04;;;;;;;52.60;32.00;;;13.80;99.90;;;;;;5092888;28;20525;-66
2022/10/17 01:22:42;;;;;;;55.78;32.83;;;13.80;99.90;;;;;;5092520;28;20061;-66
2022/10/17 01:25:45;;;;;;;60.25;33.53;;;13.80;99.90;;;;;;5092763;28;20032;-66
2022/10/17 01:28:30;;;;;;;52.50;31.90;;;13.80;99.90;;;;;;5062098;28;20080;-66
2022/10/17 01:31:01;;;;;;;48.95;30.20;;;13.80;99.90;;;;;;5092717;28;20020;-65
2022/10/17 01:33:42;;;;;;;56.45;32.38;;;13.80;99.90;;;;;;5092903;28;20036;-66
2022/10/17 01:36:20;;;;;;;54.90;32.85;;;13.80;99.90;;;;;;5092555;28;20473;-66
2022/10/17 01:38:56;;;;;;;53.75;31.80;;;13.70;99.90;;;;;;5081077;28;20085;-66
2022/10/17 01:41:34;;;;;;;49.92;31.30;;;13.70;99.90;;;;;;5092340;28;20403;-65
2022/10/17 01:44:16;;;;;;;53.17;30.85;;;13.70;99.90;;;;;;5093063;28;20020;-65
2022/10/17 01:47:19;;;;;;;54.95;32.70;;;13.70;99.90;;;;;;5092909;28;20024;-66
2022/10/17 01:49:47;;;;;;;53.55;32.45;;;13.70;99.90;;;;;;5087551;28;20047;-65
2022/10/17 01:52:18;;;;;;;54.50;31.17;;;13.60;99.90;;;;;;5092464;28;20115;-67
2022/10/17 01:54:50;;;;;;;;;;;13.60;99.90;;;;;;5093386;28;20484;-67
2022/10/17 01:57:29;;;;;;;54.78;30.15;;;13.60;99.90;;;;;;5092002;28;20343;-65
2022/10/17 01:59:56;;;;;;;54.03;32.55;;;13.60;99.90;;;;;;5093146;28;20024;-66
2022/10/17 02:02:24;;;;;;;54.63;30.25;;;13.60;99.90;;;;;;5092040;28;20040;-65
2022/10/17 02:04:52;;;;;;;53.10;32.55;;;13.60;99.90;;;;;;5092432;28;20490;-67
2022/10/17 02:07:17;;;;;;;52.15;31.02;;;13.60;99.90;;;;;;5092221;28;20040;-67
2022/10/17 02:09:43;;;;;;;54.60;32.13;;;13.60;99.90;;;;;;5092458;28;20025;-67
2022/10/17 02:12:21;;;;;;;49.05;30.73;;;13.60;99.90;;;;;;5092472;28;20073;-68
2022/10/17 02:14:53;;;;;;;50.55;32.00;;;13.60;99.90;;;;;;5092407;28;20496;-66
2022/10/17 02:17:43;;;;;;;56.50;31.17;;;13.60;99.90;;;;;;5092339;28;20029;-67
2022/10/17 02:20:09;;;;;;;53.28;29.63;;;13.60;99.90;;;;;;5092322;28;20376;-66
2022/10/17 02:22:42;;;;;;;51.28;28.98;;;13.60;99.90;;;;;;5092429;28;20020;-67
2022/10/17 02:25:44;;;;;;;51.72;32.63;;;13.60;99.90;;;;;;5092650;28;20028;-65
2022/10/17 02:28:25;;;;;;;52.33;31.02;;;13.60;99.90;;;;;;5092779;28;20028;-69
2022/10/17 02:31:02;;;;;;;49.80;29.85;;;13.60;99.90;;;;;;5096275;28;20039;-66
2022/10/17 02:33:40;;;;;;;52.70;29.83;;;13.50;99.90;;;;;;5095897;28;20047;-67
2022/10/17 02:36:12;;;;;;;44.95;28.08;;;13.50;99.90;;;;;;5096443;28;20020;-65
2022/10/17 02:38:39;;;;;;;52.70;30.63;;;13.50;99.90;;;;;;5095987;28;20040;-67
2022/10/17 02:41:08;;;;;;;51.58;29.98;;;13.50;99.90;;;;;;5096233;28;20036;-67
2022/10/17 02:43:35;;;;;;;46.22;27.70;;;13.50;99.90;;;;;;5095477;28;20384;-66
2022/10/17 02:46:01;;;;;;;49.30;29.63;;;13.50;99.90;;;;;;5095797;28;20131;-67
2022/10/17 02:48:58;;;;;;;52.70;31.33;;;13.50;99.90;;;;;;5095278;28;20519;-67
2022/10/17 02:51:36;;;;;;;47.67;30.05;;;13.40;99.90;;;;;;5095346;28;20024;-66
2022/10/17 02:54:23;;;;;;;52.78;31.42;;;13.40;99.90;;;;;;5095997;28;20118;-66
2022/10/17 02:57:06;;;;;;;52.85;31.33;;;13.40;99.90;;;;;;5095866;28;20434;-66
2022/10/17 02:59:35;;;;;;;53.53;30.00;;;13.40;99.90;;;;;;5095751;28;20118;-66
2022/10/17 03:02:05;;;;;;;46.78;28.92;;;13.40;99.90;;;;;;5095741;28;20078;-66
2022/10/17 03:04:32;;;;;;;50.38;30.65;;;13.30;99.90;;;;;;5095294;28;20024;-66
2022/10/17 03:06:57;;;;;;;55.13;31.10;;;13.30;99.90;;;;;;5095643;28;20040;-65
2022/10/17 03:09:23;;;;;;;48.80;29.40;;;13.30;99.90;;;;;;5095502;28;20032;-67
2022/10/17 03:11:49;;;;;;;57.17;30.88;;;13.30;99.90;;;;;;5095528;28;20047;-66
2022/10/17 03:14:15;;;;;;;50.80;31.55;;;13.30;99.90;;;;;;5095164;28;20067;-67
2022/10/17 03:16:41;;;;;;;56.30;31.60;;;13.20;99.90;;;;;;5095509;28;20465;-67
2022/10/17 03:19:06;;;;;;;50.97;28.50;;;13.20;99.90;;;;;;5095408;28;20028;-68
2022/10/17 03:21:32;;;;;;;50.60;30.42;;;13.20;99.90;;;;;;5095014;28;20415;-65
2022/10/17 03:23:58;;;;;;;47.88;30.40;;;13.20;99.90;;;;;;5095235;28;20031;-66
2022/10/17 03:26:24;;;;;;;49.60;29.45;;;13.20;99.90;;;;;;5094910;28;20020;-65
2022/10/17 03:28:49;;;;;;;52.47;30.65;;;13.20;99.90;;;;;;5077316;28;20460;-67
2022/10/17 03:31:16;;;;;;;55.38;30.38;;;13.20;99.90;;;;;;5095017;28;20031;-67
2022/10/17 03:33:42;;;;;;;48.97;28.65;;;13.20;99.90;;;;;;5095388;28;20032;-67
2022/10/17 03:36:13;;;;;;;50.25;29.83;;;13.10;99.90;;;;;;5092753;28;20039;-66
2022/10/17 03:38:39;;;;;;;45.83;28.83;;;13.10;99.90;;;;;;5092502;28;20116;-67
2022/10/17 03:41:06;;;;;;;53.13;29.52;;;13.10;99.90;;;;;;5074004;28;20057;-66
2022/10/17 03:43:32;;;;;;;53.67;31.23;;;13.10;99.90;;;;;;5074157;28;20028;-66
2022/10/17 03:45:58;;;;;;;50.25;30.65;;;13.00;99.90;;;;;;5074838;28;20369;-66
2022/10/17 03:48:25;;;;;;;49.28;30.83;;;13.00;99.90;;;;;;5074131;28;20063;-66
2022/10/17 03:50:50;;;;;;;50.35;30.35;;;13.00;99.90;;;;;;5074539;28;20056;-66
2022/10/17 03:53:16;;;;;;;47.10;28.25;;;13.00;99.90;;;;;;5074084;28;20101;-68
2022/10/17 03:55:42;;;;;;;48.63;30.02;;;13.00;99.90;;;;;;5074242;28;20064;-66
2022/10/17 03:58:08;;;;;;;54.03;31.00;;;13.00;99.90;;;;;;5056051;28;20024;-66
2022/10/17 04:00:35;;;;;;;48.67;30.50;;;12.90;99.90;;;;;;5073932;28;20020;-66
2022/10/17 04:03:01;;;;;;;52.50;31.20;;;12.90;99.90;;;;;;5074222;28;20034;-67
2022/10/17 04:05:27;;;;;;;47.25;29.65;;;12.90;99.90;;;;;;5073584;28;20404;-66
2022/10/17 04:07:52;;;;;;;58.20;30.05;;;12.90;99.90;;;;;;5074137;28;20032;-66
2022/10/17 04:10:18;;;;;;;50.38;29.80;;;12.90;99.90;;;;;;5073912;28;20469;-66
2022/10/17 04:12:43;;;;;;;44.22;27.67;;;12.90;99.90;;;;;;5074124;28;20055;-66
2022/10/17 04:15:09;;;;;;;54.33;30.15;;;12.90;99.90;;;;;;5073730;28;20028;-65
2022/10/17 04:17:35;;;;;;;54.35;30.27;;;12.90;99.90;;;;;;5073721;28;20028;-66
2022/10/17 04:20:01;;;;;;;45.60;28.67;;;12.90;99.90;;;;;;5074091;28;20025;-65
2022/10/17 04:22:26;;;;;;;46.45;28.42;;;12.80;99.90;;;;;;5073579;28;20068;-66
2022/10/17 04:24:52;;;;;;;51.38;28.13;;;12.80;99.90;;;;;;5074012;28;20028;-65
2022/10/17 04:27:17;;;;;;;51.95;28.63;;;12.80;99.90;;;;;;5073809;28;20094;-65
2022/10/17 04:29:43;;;;;;;49.10;29.50;;;12.80;99.90;;;;;;5073081;28;20029;-65
2022/10/17 04:32:09;;;;;;;43.67;28.05;;;12.80;99.90;;;;;;5073418;28;20362;-66
2022/10/17 04:34:34;;;;;;;47.47;28.55;;;12.80;99.90;;;;;;5073111;28;20027;-66
2022/10/17 04:37:00;;;;;;;48.97;28.88;;;12.80;99.90;;;;;;5073492;28;20476;-66
2022/10/17 04:39:26;;;;;;;45.65;27.92;;;12.80;99.90;;;;;;5073243;28;20414;-66
2022/10/17 04:41:51;;;;;;;52.28;29.25;;;12.80;99.90;;;;;;5073285;28;20085;-66
2022/10/17 04:44:17;;;;;;;55.47;29.42;;;12.80;99.90;;;;;;5073780;28;20050;-65
2022/10/17 04:46:43;;;;;;;48.75;28.90;;;12.70;99.90;;;;;;5072990;28;20101;-65
2022/10/17 04:49:08;;;;;;;52.88;29.15;;;12.70;99.90;;;;;;5073498;28;20024;-65
2022/10/17 04:51:34;;;;;;;49.08;28.48;;;12.70;99.90;;;;;;5072289;28;20059;-67
2022/10/17 04:54:00;;;;;;;45.65;27.52;;;12.70;99.90;;;;;;5073342;28;20020;-66
2022/10/17 04:56:25;;;;;;;45.65;28.88;;;12.70;99.90;;;;;;5072391;28;20488;-67
2022/10/17 04:58:51;;;;;;;46.63;27.75;;;12.70;99.90;;;;;;5073276;28;20032;-67
2022/10/17 05:01:19;;;;;;;49.38;29.25;;;12.70;99.90;;;;;;5072797;28;20376;-66
2022/10/17 05:03:45;;;;;;;47.40;27.70;;;12.70;99.90;;;;;;5072753;28;20534;-66
2022/10/17 05:06:17;;;;;;;52.63;29.60;;;12.70;99.90;;;;;;5072899;28;20082;-66
2022/10/17 05:08:42;;;;;;;46.22;28.30;;;12.70;99.90;;;;;;5072752;28;20131;-66
2022/10/17 05:11:19;;;;;;;43.08;27.05;;;12.70;99.90;;;;;;5073091;28;20032;-67
2022/10/17 05:13:49;;;;;;;44.30;25.52;;;12.70;99.90;;;;;;5072605;28;20028;-66
2022/10/17 05:16:15;;;;;;;44.88;25.20;;;12.70;99.90;;;;;;5072865;28;20032;-66
2022/10/17 05:18:40;;;;;;;43.20;27.60;;;12.70;99.90;;;;;;5072509;28;20028;-67
2022/10/17 05:21:06;;;;;;;43.78;25.80;;;12.70;99.90;;;;;;5072751;28;20358;-66
2022/10/17 05:23:32;;;;;;;48.13;26.17;;;12.60;99.90;;;;;;5072420;28;20031;-67
2022/10/17 05:25:57;;;;;;;48.13;25.75;;;12.70;99.90;;;;;;5072853;28;20457;-67
2022/10/17 05:28:23;;;;;;;40.13;25.55;;;12.60;99.90;;;;;;5072712;28;20481;-68
2022/10/17 05:30:49;;;;;;;42.47;26.60;;;12.70;99.90;;;;;;5072597;28;20032;-67
2022/10/17 05:33:14;;;;;;;41.47;25.27;;;12.70;99.90;;;;;;5072327;28;20074;-67
2022/10/17 05:35:40;;;;;;;42.08;24.88;;;12.70;99.90;;;;;;5071860;28;20029;-67
2022/10/17 05:38:06;;;;;;;39.47;25.00;;;12.70;99.90;;;;;;5072640;28;20029;-66
2022/10/17 05:40:32;;;;;;;45.65;23.73;;;12.70;99.90;;;;;;5071961;28;20070;-66
2022/10/17 05:42:58;;;;;;;36.40;23.17;;;12.70;99.90;;;;;;5074936;28;20036;-66
2022/10/17 05:45:24;;;;;;;38.13;23.33;;;12.80;99.90;;;;;;5092322;28;20117;-66
2022/10/17 05:47:50;;;;;;;45.80;24.58;;;12.80;99.90;;;;;;5081209;28;20020;-66
2022/10/17 05:50:16;;;;;;;35.67;21.83;;;12.90;99.90;;;;;;5072566;28;20024;-66
2022/10/17 05:52:42;;;;;;;36.13;22.17;;;12.90;99.90;;;;;;5072098;28;20120;-65
2022/10/17 05:55:08;;;;;;;38.30;20.90;;;12.90;99.90;;;;;;5072377;28;20060;-66
2022/10/17 05:57:34;;;;;;;33.90;20.85;;;12.90;99.90;;;;;;5072202;28;20028;-66
2022/10/17 05:59:59;;;;;;;32.92;20.98;;;12.90;99.90;;;;;;5072402;28;20068;-66
2022/10/17 06:02:25;;;;;;;37.05;21.88;;;12.90;99.90;;;;;;5073134;28;20507;-66
2022/10/17 06:04:51;;;;;;;34.03;20.83;;;12.90;99.90;;;;;;5076166;28;20028;-66
2022/10/17 06:07:16;;;;;;;30.33;20.30;;;12.90;99.90;;;;;;5076322;28;20043;-66
2022/10/17 06:09:42;;;;;;;32.17;19.50;;;12.90;99.90;;;;;;5076020;28;20476;-66
2022/10/17 06:12:08;;;;;;;33.47;20.23;;;12.90;99.90;;;;;;5076292;28;20024;-66
2022/10/17 06:14:33;;;;;;;32.35;19.63;;;12.90;99.90;;;;;;5075945;28;20114;-66
2022/10/17 06:17:00;;;;;;;34.38;21.42;;;13.00;99.90;;;;;;5075928;28;20052;-66
2022/10/17 06:19:25;;;;;;;31.25;19.58;;;13.00;99.90;;;;;;5076132;28;20032;-64
2022/10/17 06:21:51;;;;;;;31.85;19.77;;;13.00;99.90;;;;;;5075773;28;20431;-67
2022/10/17 06:24:17;;;;;;;32.90;20.52;;;13.00;99.90;;;;;;5075688;28;20031;-64
2022/10/17 06:26:43;;;;;;;33.13;19.85;;;13.00;99.90;;;;;;5075662;28;20056;-64
2022/10/17 06:29:09;;;;;;;29.42;18.55;;;13.00;99.90;;;;;;5075630;28;20025;-65
2022/10/17 06:31:35;;;;;;;36.63;18.48;;;13.00;99.90;;;;;;5075858;28;20415;-66
2022/10/17 06:34:00;;;;;;;27.70;18.05;;;13.10;99.90;;;;;;5075898;28;20024;-65
2022/10/17 06:36:26;;;;;;;30.15;18.83;;;13.10;99.90;;;;;;5075673;28;20047;-66
2022/10/17 06:38:52;;;;;;;30.33;18.60;;;13.10;99.90;;;;;;5074999;28;20507;-65
2022/10/17 06:41:18;;;;;;;28.08;17.90;;;13.20;99.90;;;;;;5058052;28;20106;-66
2022/10/17 06:43:45;;;;;;;28.55;17.85;;;13.20;99.90;;;;;;5075090;28;20094;-66
2022/10/17 06:46:12;;;;;;;27.25;17.83;;;13.20;99.90;;;;;;5075704;28;20075;-66
2022/10/17 06:48:38;;;;;;;26.05;17.55;;;13.30;99.90;;;;;;5075163;28;20072;-67
2022/10/17 06:51:05;;;;;;;31.23;17.77;;;13.30;99.90;;;;;;5075774;28;20032;-66
2022/10/17 06:53:33;;;;;;;27.65;18.42;;;13.30;99.90;;;;;;5075159;28;20028;-66
2022/10/17 06:56:03;;;;;;;27.35;16.63;;;13.40;99.90;;;;;;5075116;28;20044;-66
2022/10/17 06:58:34;;;;;;;28.23;17.45;;;13.40;99.90;;;;;;5075547;28;20086;-65
2022/10/17 07:01:00;;;;;;;30.52;18.23;;;13.40;99.90;;;;;;5075714;28;20055;-66
2022/10/17 07:03:26;;;;;;;28.92;18.00;;;13.50;99.90;;;;;;5075316;28;20024;-67
2022/10/17 07:05:53;;;;;;;31.98;17.45;;;13.60;99.90;;;;;;5074966;28;20024;-65
2022/10/17 07:08:19;;;;;;;29.58;16.55;;;13.60;99.90;;;;;;5075214;28;20035;-66
2022/10/17 07:10:45;;;;;;;25.83;17.48;;;13.60;99.90;;;;;;5074873;28;20036;-66
2022/10/17 07:13:10;;;;;;;30.70;17.38;;;13.70;99.90;;;;;;5075370;28;20468;-65
2022/10/17 07:15:37;;;;;;;26.05;16.92;;;13.90;99.90;;;;;;5074111;28;20051;-66
2022/10/17 07:18:03;;;;;;;28.10;16.80;;;14.10;99.90;;;;;;5074960;28;20040;-66
2022/10/17 07:20:29;;;;;;;29.00;17.23;;;14.30;99.90;;;;;;5075026;28;20032;-66
2022/10/17 07:22:55;;;;;;;25.38;16.27;;;14.60;99.90;;;;;;5074582;28;20067;-66
2022/10/17 07:25:21;;;;;;;25.20;16.05;;;14.80;99.90;;;;;;5075028;28;20056;-66
2022/10/17 07:27:48;;;;;;;25.42;16.38;;;15.00;99.90;;;;;;5074449;28;20040;-66
2022/10/17 07:30:14;;;;;;;25.13;16.70;;;15.20;99.90;;;;;;5074947;28;20032;-66
2022/10/17 07:32:40;;;;;;;27.27;15.75;;;15.40;99.90;;;;;;5074372;28;20021;-67
2022/10/17 07:35:06;;;;;;;27.17;16.52;;;15.60;99.90;;;;;;5074632;28;20025;-66
2022/10/17 07:37:32;;;;;;;22.75;15.93;;;15.80;99.90;;;;;;5074836;28;20431;-65
2022/10/17 07:39:58;;;;;;;24.80;16.20;;;16.00;99.90;;;;;;5082862;28;20027;-66
2022/10/17 07:42:23;;;;;;;26.58;17.30;;;16.20;99.90;;;;;;5094771;28;20107;-66
2022/10/17 07:44:49;;;;;;;26.63;17.15;;;16.30;99.90;;;;;;5094509;28;20036;-65
2022/10/17 07:47:15;;;;;;;25.80;17.23;;;16.50;99.90;;;;;;5094634;28;20039;-65
2022/10/17 07:49:43;;;;;;;25.92;16.42;;;16.60;99.90;;;;;;5094058;28;20434;-67
2022/10/17 07:52:13;;;;;;;28.17;17.50;;;16.70;99.90;;;;;;5094769;28;20384;-67
2022/10/17 07:54:39;;;;;;;24.67;17.55;;;16.80;99.90;;;;;;5094320;28;20024;-65
2022/10/17 07:57:05;;;;;;;28.90;17.60;;;17.00;99.90;;;;;;5081170;28;20541;-65
2022/10/17 07:59:36;;;;;;;27.70;17.80;;;17.10;99.90;;;;;;5074315;28;20032;-65
2022/10/17 08:02:02;;;;;;;24.73;16.63;;;17.40;99.90;;;;;;5073975;28;20025;-65
2022/10/17 08:04:28;;;;;;;28.33;17.02;;;17.50;99.90;;;;;;5074180;28;20020;-65
2022/10/17 08:06:54;;;;;;;23.90;16.63;;;17.60;99.90;;;;;;5055886;28;20111;-65
2022/10/17 08:09:20;;;;;;;24.95;16.77;;;17.70;99.90;;;;;;5074278;28;20479;-66
2022/10/17 08:11:46;;;;;;;25.17;17.27;;;17.70;99.90;;;;;;5073435;28;20074;-66
2022/10/17 08:14:13;;;;;;;25.98;16.00;;;17.90;99.90;;;;;;5074132;28;20032;-66
2022/10/17 08:16:39;;;;;;;28.15;16.52;;;17.90;99.90;;;;;;5073372;28;20384;-66
2022/10/17 08:19:07;;;;;;;27.40;17.95;;;18.00;99.90;;;;;;5074211;28;20032;-66
2022/10/17 08:21:33;;;;;;;25.25;17.15;;;18.20;99.90;;;;;;5074213;28;20445;-65
2022/10/17 08:24:01;;;;;;;26.67;16.92;;;18.30;99.90;;;;;;5073491;28;20060;-65
2022/10/17 08:26:27;;;;;;;27.80;16.77;;;18.40;99.90;;;;;;5072688;28;20036;-67
2022/10/17 08:28:53;;;;;;;26.45;16.90;;;18.60;99.90;;;;;;5073003;28;20036;-67
2022/10/17 08:31:19;;;;;;;30.25;17.17;;;18.70;99.90;;;;;;5073686;28;20025;-67
2022/10/17 08:33:46;;;;;;;26.83;16.60;;;18.80;99.90;;;;;;5073278;28;20032;-67
2022/10/17 08:36:14;;;;;;;37.08;17.10;;;19.00;99.90;;;;;;5073303;28;20397;-66
2022/10/17 08:38:42;;;;;;;29.35;18.25;;;19.10;99.90;;;;;;5073150;28;20524;-67
2022/10/17 08:41:22;;;;;;;26.05;17.95;;;19.20;98.50;;;;;;5073180;28;20465;-66
2022/10/17 08:43:48;;;;;;;26.77;17.13;;;19.30;97.90;;;;;;5073157;28;20050;-66
2022/10/17 08:46:14;;;;;;;25.98;17.48;;;19.40;97.90;;;;;;5073154;28;20020;-66
2022/10/17 08:48:43;;;;;;;29.98;17.63;;;19.50;98.00;;;;;;5072944;28;20487;-65
2022/10/17 08:51:32;;;;;;;24.90;18.50;;;19.60;98.30;;;;;;5073338;28;20024;-67
2022/10/17 08:54:11;;;;;;;31.35;18.17;;;19.70;97.10;;;;;;5072987;28;20138;-65
2022/10/17 08:56:47;;;;;;;25.27;18.25;;;19.80;96.60;;;;;;5073392;28;20060;-66
2022/10/17 08:59:17;;;;;;;26.48;18.50;;;19.90;96.40;;;;;;5073295;28;20029;-65
2022/10/17 09:01:49;;;;;;;27.63;17.70;;;20.00;95.30;;;;;;5072678;28;20031;-66
2022/10/17 09:04:38;;;;;;;30.80;17.65;;;20.10;95.60;;;;;;5073046;28;20020;-65
2022/10/17 09:07:03;;;;;;;25.85;17.83;;;20.10;95.10;;;;;;5072698;28;20040;-65
2022/10/17 09:09:47;;;;;;;29.25;19.38;;;20.20;94.80;;;;;;5072955;28;20430;-66
2022/10/17 09:12:19;;;;;;;25.90;18.13;;;20.20;95.20;;;;;;5073079;28;20028;-66
2022/10/17 09:15:22;;;;;;;24.27;18.45;;;20.30;94.30;;;;;;5072838;28;20040;-67
2022/10/17 09:17:57;;;;;;;29.02;19.40;;;20.30;93.60;;;;;;5072452;28;20102;-66
2022/10/17 09:20:32;;;;;;;29.55;19.17;;;20.30;94.00;;;;;;5072859;28;20024;-66
2022/10/17 09:23:02;;;;;;;30.80;19.05;;;20.40;94.70;;;;;;5072312;28;20523;-66
2022/10/17 09:25:32;;;;;;;26.33;19.93;;;20.40;93.90;;;;;;5072927;28;20488;-65
2022/10/17 09:28:05;;;;;;;28.23;18.67;;;20.50;94.10;;;;;;5054428;28;20469;-66
2022/10/17 09:30:49;;;;;;;29.55;19.92;;;20.60;94.30;;;;;;5072835;28;20107;-65
2022/10/17 09:33:17;;;;;;;28.67;20.00;;;20.60;93.00;;;;;;5072913;28;20028;-66
2022/10/17 09:35:44;;;;;;;30.85;21.40;;;20.60;93.40;;;;;;5072386;28;20035;-66
2022/10/17 09:38:20;;;;;;;27.67;20.27;;;20.70;93.00;;;;;;5071911;28;20134;-66
2022/10/17 09:40:53;;;;;;;29.35;21.00;;;20.70;93.10;;;;;;5072014;28;20027;-66
2022/10/17 09:43:19;;;;;;;30.65;20.77;;;20.70;93.10;;;;;;5087692;28;20473;-66
2022/10/17 09:46:07;;;;;;;31.10;20.98;;;20.80;92.90;;;;;;5092455;28;20032;-65
2022/10/17 09:49:06;;;;;;;29.17;19.95;;;20.80;92.70;;;;;;5092848;28;20074;-65
2022/10/17 09:51:31;;;;;;;30.60;19.40;;;20.90;92.90;;;;;;5092465;28;20047;-65
2022/10/17 09:54:03;;;;;;;27.35;19.73;;;21.00;93.00;;;;;;5073098;28;20029;-66
2022/10/17 09:56:29;;;;;;;29.15;20.55;;;21.00;92.70;;;;;;5072617;28;20045;-67
2022/10/17 09:58:58;;;;;;;28.77;20.08;;;21.10;92.40;;;;;;5072285;28;20037;-67
2022/10/17 10:01:29;;;;;;;29.20;19.88;;;21.20;92.40;;;;;;5072337;28;20028;-66
2022/10/17 10:04:09;;;;;;;32.22;20.02;;;21.20;91.90;;;;;;5071911;28;20372;-65
2022/10/17 10:06:35;;;;;;;27.57;19.13;;;21.30;91.80;;;;;;5072320;28;20445;-69
2022/10/17 10:09:04;;;;;;;27.95;18.65;;;21.30;92.00;;;;;;5071872;28;20111;-67
2022/10/17 10:11:45;;;;;;;31.33;19.17;;;21.30;91.20;;;;;;5072254;28;20021;-66
2022/10/17 10:14:19;;;;;;;24.98;18.45;;;21.40;91.70;;;;;;5072384;28;20082;-66
2022/10/17 10:16:46;;;;;;;25.23;17.73;;;21.50;91.50;;;;;;5072052;28;20454;-69
2022/10/17 10:19:25;;;;;;;28.67;18.77;;;21.60;90.70;;;;;;5072237;28;20024;-67
2022/10/17 10:22:04;;;;;;;23.40;18.02;;;21.60;90.60;;;;;;5071966;28;20017;-66
2022/10/17 10:24:31;;;;;;;24.05;16.65;;;21.70;90.20;;;;;;5072318;28;20029;-66
2022/10/17 10:27:02;;;;;;;23.92;17.42;;;21.80;90.40;;;;;;5071667;28;20025;-65
2022/10/17 10:29:29;;;;;;;26.05;16.92;;;21.90;89.20;;;;;;5072359;28;20036;-66
2022/10/17 10:32:15;;;;;;;21.70;16.38;;;21.90;89.50;;;;;;5071466;28;20032;-65
2022/10/17 10:34:56;;;;;;;24.20;16.70;;;22.00;88.70;;;;;;5071792;28;20025;-66
2022/10/17 10:37:28;;;;;;;24.05;17.23;;;22.00;87.20;;;;;;5072154;28;20452;-66
2022/10/17 10:39:57;;;;;;;22.73;17.40;;;22.10;87.80;;;;;;5071607;28;20032;-67
2022/10/17 10:42:33;;;;;;;25.52;17.90;;;22.20;85.30;;;;;;5072120;28;20036;-65
2022/10/17 10:45:15;;;;;;;23.33;17.58;;;22.20;85.00;;;;;;5071733;28;20029;-66
2022/10/17 10:47:51;;;;;;;25.45;17.35;;;22.30;85.60;;;;;;5072169;28;20529;-66
2022/10/17 10:50:21;;;;;;;25.90;17.02;;;22.30;85.30;;;;;;5073904;28;20025;-66
2022/10/17 10:53:13;;;;;;;22.70;16.27;;;22.40;84.50;;;;;;5075983;28;20255;-66
2022/10/17 10:55:57;;;;;;;29.67;16.95;;;22.50;82.70;;;;;;5057373;28;20041;-66
2022/10/17 10:58:51;;;;;;;22.65;16.20;;;22.50;82.60;;;;;;5075216;28;20036;-66
2022/10/17 11:01:38;;;;;;;25.35;15.75;;;22.60;82.80;;;;;;5075488;28;20039;-66
2022/10/17 11:04:19;;;;;;;21.45;15.60;;;22.60;82.50;;;;;;5074589;28;20489;-66
2022/10/17 11:06:45;;;;;;;20.50;15.23;;;22.70;82.60;;;;;;5075028;28;20381;-66
2022/10/17 11:09:29;;;;;;;23.95;17.70;;;22.70;81.40;;;;;;5074535;28;20047;-66
2022/10/17 11:12:00;;;;;;;22.77;17.10;;;22.70;80.10;;;;;;5074904;28;20025;-66
2022/10/17 11:14:47;;;;;;;19.60;15.45;;;22.70;80.20;;;;;;5075027;28;20414;-66
2022/10/17 11:17:18;;;;;;;19.70;15.45;;;22.70;79.80;;;;;;5074947;28;20031;-66
2022/10/17 11:20:09;;;;;;;19.17;15.48;;;22.70;79.70;;;;;;5074864;28;20099;-66
2022/10/17 11:22:43;;;;;;;22.07;16.87;;;22.80;79.70;;;;;;5074821;28;20024;-65
2022/10/17 11:25:14;;;;;;;24.13;15.93;;;22.80;79.30;;;;;;5074337;28;20385;-66
2022/10/17 11:27:40;;;;;;;22.35;15.35;;;22.80;79.80;;;;;;5074631;28;20036;-65
2022/10/17 11:30:11;;;;;;;25.10;17.35;;;22.70;79.30;;;;;;5074419;28;20029;-66
2022/10/17 11:32:57;;;;;;;20.75;15.13;;;22.70;78.50;;;;;;5074881;28;20033;-66
2022/10/17 11:35:27;;;;;;;21.67;15.18;;;22.70;78.90;;;;;;5074826;28;20025;-66
2022/10/17 11:38:21;;;;;;;25.83;16.25;;;22.70;78.50;;;;;;5074225;28;20109;-65
2022/10/17 11:40:53;;;;;;;20.77;15.02;;;22.70;77.80;;;;;;5074599;28;20115;-65
2022/10/17 11:43:39;;;;;;;28.13;14.50;;;22.70;77.80;;;;;;5084571;28;20480;-65
2022/10/17 11:46:24;;;;;;;21.65;15.23;;;22.70;77.30;;;;;;5094485;28;20424;-66
2022/10/17 11:49:05;;;;;;;22.60;15.45;;;22.80;77.80;;;;;;5077278;28;20361;-66
2022/10/17 11:51:47;;;;;;;19.67;14.98;;;22.70;76.80;;;;;;5074545;28;20048;-66
2022/10/17 11:54:17;;;;;;;28.80;14.32;;;22.80;76.60;;;;;;5074042;28;20103;-66
2022/10/17 11:57:16;;;;;;;21.23;15.20;;;22.80;77.30;;;;;;5074045;28;20056;-65
2022/10/17 11:59:53;;;;;;;23.15;14.30;;;22.80;76.60;;;;;;5074511;28;20029;-66
2022/10/17 12:03:13;;;;;;;18.35;14.27;;;22.90;76.00;;;;;;5074217;28;20031;-66
2022/10/17 12:06:12;;;;;;;27.90;14.32;;;22.90;76.20;;;;;;4985131;28;20041;-66
2022/10/17 12:09:00;;;;;;;21.02;14.45;;;22.80;75.50;;;;;;5074003;28;20033;-66
2022/10/17 12:11:52;;;;;;;17.42;13.32;;;22.90;75.30;;;;;;5074334;28;20108;-66
2022/10/17 12:14:40;;;;;;;19.88;13.50;;;22.90;75.30;;;;;;5074229;28;20128;-66
2022/10/17 12:17:21;;;;;;;19.38;13.45;;;23.00;74.70;;;;;;5073526;28;20450;-64
2022/10/17 12:19:47;;;;;;;18.58;13.07;;;22.90;74.30;;;;;;5073629;28;20036;-66
2022/10/17 12:22:24;;;;;;;16.92;13.50;;;22.90;74.70;;;;;;5073252;28;20066;-66
2022/10/17 12:25:02;;;;;;;19.15;12.27;;;22.80;73.90;;;;;;5073686;28;20402;-66
2022/10/17 12:27:38;;;;;;;24.30;13.63;;;22.80;74.10;;;;;;5073797;28;20028;-65
2022/10/17 12:30:15;;;;;;;19.15;12.70;;;22.70;74.40;;;;;;5073174;28;20024;-65
2022/10/17 12:32:59;;;;;;;16.50;13.05;;;22.70;75.00;;;;;;5073439;28;20412;-65
2022/10/17 12:35:26;;;;;;;17.33;12.82;;;22.70;73.60;;;;;;5073213;28;20465;-64
2022/10/17 12:37:52;;;;;;;18.77;12.43;;;22.60;74.30;;;;;;5073432;28;20078;-66
2022/10/17 12:40:36;;;;;;;18.73;12.02;;;22.50;74.20;;;;;;5072970;28;20457;-65
2022/10/17 12:43:21;;;;;;;17.65;12.20;;;22.50;74.10;;;;;;5073006;28;20032;-65
2022/10/17 12:45:55;;;;;;;22.00;12.25;;;22.50;74.00;;;;;;5073236;28;20387;-65
2022/10/17 12:49:01;;;;;;;18.65;12.20;;;22.40;73.50;;;;;;5073454;28;20350;-65